createdAt,value
2022-08-19T00:41:23.022Z,14.23
2022-08-19T00:46:34.850Z,14.10
2022-08-19T00:51:41.390Z,14.83
2022-08-19T00:56:50.346Z,15.70
2022-08-19T01:02:01.044Z,17.90
2022-08-19T01:07:09.540Z,18.80
2022-08-19T01:35:43.249Z,16.70
2022-08-19T01:40:56.956Z,17.40
2022-08-19T01:46:02.950Z,21.77
2022-08-19T01:51:22.287Z,19.17
2022-08-19T01:56:45.410Z,22.63
2022-08-19T04:08:29.788Z,25.90
2022-08-19T06:59:11.291Z,21.43
2022-08-19T07:04:18.786Z,18.47
2022-08-19T07:09:26.460Z,19.13
2022-08-19T07:14:36.877Z,18.27
2022-08-19T07:19:44.469Z,20.93
2022-08-19T07:24:51.076Z,20.67
2022-08-19T07:30:05.745Z,21.13
2022-08-19T07:35:20.886Z,20.33
2022-08-19T07:51:36.898Z,22.27
2022-08-19T07:56:53.867Z,22.20
2022-08-19T08:02:04.070Z,21.47
2022-08-19T08:13:08.547Z,22.93
2022-08-19T08:34:55.104Z,22.43
2022-08-19T08:40:12.963Z,20.43
2022-08-19T08:45:25.308Z,22.67
2022-08-19T08:50:47.801Z,22.90
2022-08-19T08:55:57.810Z,22.23
2022-08-19T09:01:11.302Z,18.77
2022-08-19T09:06:32.314Z,21.20
2022-08-19T09:17:33.362Z,20.73
2022-08-19T09:22:54.800Z,20.07
2022-08-19T10:13:27.538Z,15.53
2022-08-19T10:18:49.612Z,14.07
2022-08-19T10:24:00.101Z,17.63
2022-08-19T10:29:14.666Z,13.77
2022-08-19T10:46:05.415Z,12.93
2022-08-19T12:22:39.526Z,18.63
2022-08-19T12:27:57.298Z,19.33
2022-08-19T12:33:10.204Z,22.50
2022-08-19T12:38:30.194Z,21.30
2022-08-19T12:43:40.467Z,27.93
2022-08-19T12:48:56.108Z,33.23
2022-08-19T13:16:17.260Z,27.00
2022-08-19T13:50:02.280Z,30.33
2022-08-19T14:39:54.779Z,29.63
2022-08-19T14:45:30.743Z,31.60
2022-08-19T14:50:59.704Z,30.30
2022-08-19T15:07:50.359Z,39.80
2022-08-19T15:18:41.264Z,41.83
2022-08-19T15:29:44.814Z,37.40
2022-08-19T17:06:59.837Z,36.60
2022-08-19T17:12:09.652Z,29.53
2022-08-19T17:44:59.761Z,32.73
2022-08-19T17:50:14.294Z,31.40
2022-08-19T17:55:33.554Z,32.30
2022-08-19T18:00:53.354Z,27.33
2022-08-19T18:06:09.689Z,29.93
2022-08-19T18:11:18.430Z,30.80
2022-08-19T18:16:32.962Z,29.60
2022-08-19T18:21:42.908Z,31.03
2022-08-19T18:32:25.444Z,29.97
2022-08-19T18:37:46.487Z,26.97
2022-08-19T18:43:11.013Z,28.20
2022-08-19T18:48:39.166Z,25.93
2022-08-19T18:53:57.096Z,26.67
2022-08-19T18:59:08.425Z,29.33
2022-08-19T19:04:19.515Z,26.60
2022-08-19T19:09:35.489Z,26.13
2022-08-19T19:14:49.427Z,29.17
2022-08-19T19:20:05.400Z,28.97
2022-08-19T19:25:16.290Z,28.47
2022-08-19T19:30:25.211Z,27.23
2022-08-19T19:41:25.111Z,26.63
2022-08-19T19:57:50.961Z,26.17
2022-08-19T20:02:59.828Z,28.53
2022-08-19T20:08:20.110Z,31.37
2022-08-19T20:13:33.098Z,31.37
2022-08-19T20:18:40.747Z,33.43
2022-08-19T20:24:09.712Z,34.13
2022-08-19T20:29:39.424Z,32.33
2022-08-19T20:34:49.646Z,32.63
2022-08-19T20:39:55.240Z,45.70
2022-08-19T20:45:08.697Z,34.57
2022-08-19T20:50:32.697Z,36.27
2022-08-19T20:55:38.878Z,37.97
2022-08-19T21:00:48.668Z,37.80
2022-08-19T21:05:54.219Z,37.83
2022-08-19T21:11:01.068Z,39.57
2022-08-19T21:16:09.801Z,41.60
2022-08-19T21:21:16.187Z,40.00
2022-08-19T21:26:23.050Z,44.70
2022-08-19T21:31:31.526Z,44.17
2022-08-19T21:36:38.350Z,41.07
2022-08-19T21:41:43.942Z,43.43
2022-08-19T21:46:51.792Z,43.80
2022-08-19T21:51:57.456Z,42.53
2022-08-19T21:57:03.740Z,42.37
2022-08-19T22:02:20.775Z,41.53
2022-08-19T22:07:29.331Z,37.60
2022-08-19T22:12:38.406Z,36.40
2022-08-19T22:17:55.393Z,36.80
2022-08-19T22:23:05.683Z,37.90
2022-08-19T22:28:18.895Z,36.13
2022-08-19T22:33:33.927Z,34.27
2022-08-19T22:38:39.754Z,34.17
2022-08-19T22:49:28.096Z,37.23
2022-08-19T22:54:34.282Z,35.83
2022-08-19T22:59:41.172Z,35.33
2022-08-19T23:04:50.185Z,37.27
2022-08-19T23:10:03.502Z,32.67
2022-08-19T23:15:13.030Z,34.40
2022-08-19T23:20:23.437Z,37.07
2022-08-19T23:25:32.495Z,35.50
2022-08-19T23:30:43.972Z,35.43
2022-08-19T23:35:52.322Z,31.60
2022-08-19T23:41:01.377Z,33.37
2022-08-19T23:46:11.623Z,31.43
2022-08-19T23:51:22.917Z,33.03
2022-08-19T23:56:28.348Z,37.73
